sensor_id;sensor_type;location;lat;lon;timestamp;pressure;altitude;pressure_sealevel;temperature;humidity
68169;BME280;54981;50.206;15.978;2022-08-19T00:01:35;98034.63;;;21.84;66.11
68169;BME280;54981;50.206;15.978;2022-08-19T00:04:04;98045.13;;;21.87;65.96
68169;BME280;54981;50.206;15.978;2022-08-19T00:06:30;98035.81;;;21.89;66.17
68169;BME280;54981;50.206;15.978;2022-08-19T00:08:56;98036.81;;;21.88;66.11
68169;BME280;54981;50.206;15.978;2022-08-19T00:11:23;98034.47;;;21.85;66.29
68169;BME280;54981;50.206;15.978;2022-08-19T00:13:49;98035.38;;;21.78;66.65
68169;BME280;54981;50.206;15.978;2022-08-19T00:16:16;98031.50;;;21.72;66.79
68169;BME280;54981;50.206;15.978;2022-08-19T00:18:43;98035.19;;;21.79;66.50
68169;BME280;54981;50.206;15.978;2022-08-19T00:21:08;98035.38;;;21.78;66.63
68169;BME280;54981;50.206;15.978;2022-08-19T00:23:35;98045.97;;;21.87;66.50
68169;BME280;54981;50.206;15.978;2022-08-19T00:26:03;98052.53;;;21.62;68.21
68169;BME280;54981;50.206;15.978;2022-08-19T00:28:28;98053.19;;;21.72;68.53
68169;BME280;54981;50.206;15.978;2022-08-19T00:30:53;98051.84;;;21.68;68.14
68169;BME280;54981;50.206;15.978;2022-08-19T00:33:19;98043.22;;;21.64;67.17
68169;BME280;54981;50.206;15.978;2022-08-19T00:35:44;98050.50;;;21.64;68.65
68169;BME280;54981;50.206;15.978;2022-08-19T00:38:10;98045.53;;;21.36;69.45
68169;BME280;54981;50.206;15.978;2022-08-19T00:40:35;98048.34;;;20.87;70.22
68169;BME280;54981;50.206;15.978;2022-08-19T00:43:00;98044.66;;;20.88;70.79
68169;BME280;54981;50.206;15.978;2022-08-19T00:45:27;98045.28;;;20.98;70.27
68169;BME280;54981;50.206;15.978;2022-08-19T00:47:55;98034.09;;;21.01;70.05
68169;BME280;54981;50.206;15.978;2022-08-19T00:50:21;98042.75;;;20.97;70.45
68169;BME280;54981;50.206;15.978;2022-08-19T00:52:50;98028.69;;;21.10;70.05
68169;BME280;54981;50.206;15.978;2022-08-19T00:55:18;98038.28;;;21.20;70.11
68169;BME280;54981;50.206;15.978;2022-08-19T00:57:48;98035.03;;;21.33;69.79
68169;BME280;54981;50.206;15.978;2022-08-19T01:00:17;98035.88;;;21.42;69.52
68169;BME280;54981;50.206;15.978;2022-08-19T01:02:43;98022.88;;;21.21;69.26
68169;BME280;54981;50.206;15.978;2022-08-19T01:05:11;98026.00;;;21.10;69.19
68169;BME280;54981;50.206;15.978;2022-08-19T01:07:39;98027.19;;;21.07;68.91
68169;BME280;54981;50.206;15.978;2022-08-19T01:10:07;98027.66;;;21.11;69.22
68169;BME280;54981;50.206;15.978;2022-08-19T01:12:33;98017.81;;;21.18;69.22
68169;BME280;54981;50.206;15.978;2022-08-19T01:14:59;98013.56;;;21.32;68.72
68169;BME280;54981;50.206;15.978;2022-08-19T01:17:25;97995.75;;;21.37;68.06
68169;BME280;54981;50.206;15.978;2022-08-19T01:19:51;97996.38;;;21.08;69.36
68169;BME280;54981;50.206;15.978;2022-08-19T01:24:48;97995.94;;;20.88;69.68
68169;BME280;54981;50.206;15.978;2022-08-19T01:27:14;97989.81;;;20.94;70.06
68169;BME280;54981;50.206;15.978;2022-08-19T01:29:42;97983.03;;;20.98;70.23
68169;BME280;54981;50.206;15.978;2022-08-19T01:32:12;97981.69;;;21.02;70.05
68169;BME280;54981;50.206;15.978;2022-08-19T01:34:38;97980.28;;;21.06;69.51
68169;BME280;54981;50.206;15.978;2022-08-19T01:37:08;97970.78;;;20.71;70.80
68169;BME280;54981;50.206;15.978;2022-08-19T01:39:37;97969.94;;;20.46;71.53
68169;BME280;54981;50.206;15.978;2022-08-19T01:42:03;97979.94;;;20.37;71.78
68169;BME280;54981;50.206;15.978;2022-08-19T01:44:29;98000.72;;;20.45;71.28
68169;BME280;54981;50.206;15.978;2022-08-19T01:46:55;98007.81;;;20.54;71.77
68169;BME280;54981;50.206;15.978;2022-08-19T01:49:22;98024.56;;;20.58;72.66
68169;BME280;54981;50.206;15.978;2022-08-19T01:51:48;98040.44;;;20.69;72.92
68169;BME280;54981;50.206;15.978;2022-08-19T01:54:16;98035.72;;;20.71;72.71
68169;BME280;54981;50.206;15.978;2022-08-19T01:56:41;98049.22;;;20.71;71.84
68169;BME280;54981;50.206;15.978;2022-08-19T01:59:10;98053.44;;;20.33;72.50
68169;BME280;54981;50.206;15.978;2022-08-19T02:01:37;98054.03;;;19.94;73.47
68169;BME280;54981;50.206;15.978;2022-08-19T02:04:02;98057.63;;;19.60;73.94
68169;BME280;54981;50.206;15.978;2022-08-19T02:06:28;98049.53;;;19.18;75.97
68169;BME280;54981;50.206;15.978;2022-08-19T02:08:53;98051.19;;;19.10;77.88
68169;BME280;54981;50.206;15.978;2022-08-19T02:11:21;98062.22;;;19.25;77.71
68169;BME280;54981;50.206;15.978;2022-08-19T02:13:47;98058.06;;;19.39;76.64
68169;BME280;54981;50.206;15.978;2022-08-19T02:16:14;98069.38;;;19.43;77.09
68169;BME280;54981;50.206;15.978;2022-08-19T02:18:40;98058.28;;;19.54;76.81
68169;BME280;54981;50.206;15.978;2022-08-19T02:21:05;98067.84;;;19.74;75.91
68169;BME280;54981;50.206;15.978;2022-08-19T02:23:31;98068.81;;;19.65;74.71
68169;BME280;54981;50.206;15.978;2022-08-19T02:25:56;98066.41;;;19.62;75.76
68169;BME280;54981;50.206;15.978;2022-08-19T02:28:21;98057.63;;;19.60;76.27
68169;BME280;54981;50.206;15.978;2022-08-19T02:30:47;98052.88;;;19.54;75.51
68169;BME280;54981;50.206;15.978;2022-08-19T02:33:13;98062.66;;;19.47;76.47
68169;BME280;54981;50.206;15.978;2022-08-19T02:35:45;98073.59;;;19.45;77.29
68169;BME280;54981;50.206;15.978;2022-08-19T02:38:10;98081.41;;;19.48;77.62
68169;BME280;54981;50.206;15.978;2022-08-19T02:40:57;98079.00;;;19.45;77.00
68169;BME280;54981;50.206;15.978;2022-08-19T02:43:24;98083.25;;;19.22;76.41
68169;BME280;54981;50.206;15.978;2022-08-19T02:45:51;98071.63;;;19.21;77.57
68169;BME280;54981;50.206;15.978;2022-08-19T02:48:20;98073.97;;;19.16;78.61
68169;BME280;54981;50.206;15.978;2022-08-19T02:50:46;98075.28;;;19.12;79.02
68169;BME280;54981;50.206;15.978;2022-08-19T02:53:12;98079.22;;;18.91;79.05
68169;BME280;54981;50.206;15.978;2022-08-19T02:55:46;98070.38;;;18.63;79.95
68169;BME280;54981;50.206;15.978;2022-08-19T02:58:12;98088.53;;;18.35;81.65
68169;BME280;54981;50.206;15.978;2022-08-19T03:00:46;98090.91;;;18.38;81.56
68169;BME280;54981;50.206;15.978;2022-08-19T03:03:12;98093.38;;;18.31;81.35
68169;BME280;54981;50.206;15.978;2022-08-19T03:05:39;98101.59;;;18.48;79.84
68169;BME280;54981;50.206;15.978;2022-08-19T03:08:04;98098.19;;;18.64;79.62
68169;BME280;54981;50.206;15.978;2022-08-19T03:10:31;98106.63;;;18.79;78.74
68169;BME280;54981;50.206;15.978;2022-08-19T03:12:57;98114.28;;;18.91;77.81
68169;BME280;54981;50.206;15.978;2022-08-19T03:15:22;98111.44;;;18.93;77.49
68169;BME280;54981;50.206;15.978;2022-08-19T03:17:47;98114.28;;;18.91;77.29
68169;BME280;54981;50.206;15.978;2022-08-19T03:20:13;98115.59;;;18.69;77.04
68169;BME280;54981;50.206;15.978;2022-08-19T03:22:38;98125.47;;;18.61;78.98
68169;BME280;54981;50.206;15.978;2022-08-19T03:25:04;98131.31;;;18.56;79.18
68169;BME280;54981;50.206;15.978;2022-08-19T03:27:29;98128.63;;;18.38;79.37
68169;BME280;54981;50.206;15.978;2022-08-19T03:29:55;98133.19;;;18.38;80.80
68169;BME280;54981;50.206;15.978;2022-08-19T03:32:20;98131.03;;;18.41;81.57
68169;BME280;54981;50.206;15.978;2022-08-19T03:34:47;98125.09;;;18.56;81.17
68169;BME280;54981;50.206;15.978;2022-08-19T03:37:13;98123.59;;;18.61;81.17
68169;BME280;54981;50.206;15.978;2022-08-19T03:39:40;98127.09;;;18.71;81.48
68169;BME280;54981;50.206;15.978;2022-08-19T03:42:06;98122.94;;;18.77;81.30
68169;BME280;54981;50.206;15.978;2022-08-19T03:44:32;98128.75;;;18.90;80.39
68169;BME280;54981;50.206;15.978;2022-08-19T03:46:58;98144.19;;;18.98;80.86
68169;BME280;54981;50.206;15.978;2022-08-19T03:49:27;98156.22;;;19.12;80.04
68169;BME280;54981;50.206;15.978;2022-08-19T03:51:55;98163.72;;;19.18;80.22
68169;BME280;54981;50.206;15.978;2022-08-19T03:54:22;98165.72;;;19.16;78.91
68169;BME280;54981;50.206;15.978;2022-08-19T03:56:49;98164.97;;;18.88;78.47
68169;BME280;54981;50.206;15.978;2022-08-19T03:59:21;98180.09;;;18.63;79.28
68169;BME280;54981;50.206;15.978;2022-08-19T04:01:50;98189.63;;;18.39;80.63
68169;BME280;54981;50.206;15.978;2022-08-19T04:04:18;98187.16;;;18.28;80.30
68169;BME280;54981;50.206;15.978;2022-08-19T04:06:43;98177.63;;;18.06;80.85
68169;BME280;54981;50.206;15.978;2022-08-19T04:09:11;98174.66;;;18.09;82.26
68169;BME280;54981;50.206;15.978;2022-08-19T04:11:39;98175.59;;;17.90;83.24
68169;BME280;54981;50.206;15.978;2022-08-19T04:14:08;98173.00;;;17.98;84.11
68169;BME280;54981;50.206;15.978;2022-08-19T04:16:33;98153.34;;;17.88;85.21
68169;BME280;54981;50.206;15.978;2022-08-19T04:19:03;98159.91;;;17.76;86.11
68169;BME280;54981;50.206;15.978;2022-08-19T04:21:29;98152.72;;;18.04;85.68
68169;BME280;54981;50.206;15.978;2022-08-19T04:23:56;98149.66;;;18.17;85.25
68169;BME280;54981;50.206;15.978;2022-08-19T04:26:27;98154.75;;;18.38;84.07
68169;BME280;54981;50.206;15.978;2022-08-19T04:28:54;98164.31;;;18.50;83.92
68169;BME280;54981;50.206;15.978;2022-08-19T04:31:25;98171.69;;;18.66;83.69
68169;BME280;54981;50.206;15.978;2022-08-19T04:33:58;98173.41;;;18.85;82.19
68169;BME280;54981;50.206;15.978;2022-08-19T04:36:30;98184.78;;;18.97;82.00
68169;BME280;54981;50.206;15.978;2022-08-19T04:38:58;98191.31;;;19.12;81.56
68169;BME280;54981;50.206;15.978;2022-08-19T04:41:24;98186.50;;;19.24;81.92
68169;BME280;54981;50.206;15.978;2022-08-19T04:44:10;98181.41;;;18.94;81.96
68169;BME280;54981;50.206;15.978;2022-08-19T04:46:36;98191.09;;;18.69;82.76
68169;BME280;54981;50.206;15.978;2022-08-19T04:49:03;98195.31;;;18.36;86.13
68169;BME280;54981;50.206;15.978;2022-08-19T04:51:30;98193.84;;;18.42;86.61
68169;BME280;54981;50.206;15.978;2022-08-19T04:53:56;98190.28;;;18.69;85.72
68169;BME280;54981;50.206;15.978;2022-08-19T04:56:22;98202.09;;;18.86;84.87
68169;BME280;54981;50.206;15.978;2022-08-19T04:58:52;98193.13;;;19.03;84.84
68169;BME280;54981;50.206;15.978;2022-08-19T05:01:21;98200.09;;;19.32;82.69
68169;BME280;54981;50.206;15.978;2022-08-19T05:03:48;98206.84;;;19.62;81.66
68169;BME280;54981;50.206;15.978;2022-08-19T05:06:15;98214.09;;;19.88;80.55
68169;BME280;54981;50.206;15.978;2022-08-19T05:08:42;98213.53;;;20.10;80.60
68169;BME280;54981;50.206;15.978;2022-08-19T05:11:17;98212.41;;;20.21;79.89
68169;BME280;54981;50.206;15.978;2022-08-19T05:13:45;98218.16;;;20.26;79.81
68169;BME280;54981;50.206;15.978;2022-08-19T05:16:12;98213.09;;;20.39;80.44
68169;BME280;54981;50.206;15.978;2022-08-19T05:18:38;98206.50;;;20.26;82.31
68169;BME280;54981;50.206;15.978;2022-08-19T05:21:22;98217.38;;;20.42;81.87
68169;BME280;54981;50.206;15.978;2022-08-19T05:24:06;98211.22;;;20.32;82.19
68169;BME280;54981;50.206;15.978;2022-08-19T05:26:37;98226.47;;;20.41;82.54
68169;BME280;54981;50.206;15.978;2022-08-19T05:29:04;98229.66;;;20.28;84.26
68169;BME280;54981;50.206;15.978;2022-08-19T05:31:30;98231.81;;;20.25;83.59
68169;BME280;54981;50.206;15.978;2022-08-19T05:33:56;98232.28;;;20.54;83.23
68169;BME280;54981;50.206;15.978;2022-08-19T05:36:25;98253.31;;;20.77;82.12
68169;BME280;54981;50.206;15.978;2022-08-19T05:38:50;98255.06;;;21.02;80.69
68169;BME280;54981;50.206;15.978;2022-08-19T05:41:19;98262.16;;;21.28;80.28
68169;BME280;54981;50.206;15.978;2022-08-19T05:43:45;98264.22;;;21.51;79.99
68169;BME280;54981;50.206;15.978;2022-08-19T05:46:16;98262.66;;;21.64;80.31
68169;BME280;54981;50.206;15.978;2022-08-19T05:48:43;98266.38;;;21.80;76.07
68169;BME280;54981;50.206;15.978;2022-08-19T05:51:08;98274.59;;;22.27;75.01
68169;BME280;54981;50.206;15.978;2022-08-19T05:53:35;98264.63;;;22.51;73.50
68169;BME280;54981;50.206;15.978;2022-08-19T05:56:09;98268.84;;;22.85;69.68
68169;BME280;54981;50.206;15.978;2022-08-19T05:58:36;98273.78;;;23.12;68.61
68169;BME280;54981;50.206;15.978;2022-08-19T06:01:01;98262.16;;;23.27;66.91
68169;BME280;54981;50.206;15.978;2022-08-19T06:03:30;98264.44;;;23.38;67.60
68169;BME280;54981;50.206;15.978;2022-08-19T06:05:57;98270.50;;;23.63;67.09
68169;BME280;54981;50.206;15.978;2022-08-19T06:08:24;98272.03;;;23.80;65.02
68169;BME280;54981;50.206;15.978;2022-08-19T06:10:49;98280.97;;;23.89;65.23
68169;BME280;54981;50.206;15.978;2022-08-19T06:13:14;98277.31;;;23.97;65.33
68169;BME280;54981;50.206;15.978;2022-08-19T06:15:40;98291.75;;;24.12;65.85
68169;BME280;54981;50.206;15.978;2022-08-19T06:18:08;98299.72;;;24.29;66.20
68169;BME280;54981;50.206;15.978;2022-08-19T06:20:34;98300.72;;;23.83;66.32
68169;BME280;54981;50.206;15.978;2022-08-19T06:22:59;98309.13;;;24.26;64.87
68169;BME280;54981;50.206;15.978;2022-08-19T06:25:24;98306.53;;;24.48;64.35
68169;BME280;54981;50.206;15.978;2022-08-19T06:27:50;98313.38;;;24.58;65.36
68169;BME280;54981;50.206;15.978;2022-08-19T06:30:15;98320.09;;;24.77;64.24
68169;BME280;54981;50.206;15.978;2022-08-19T06:32:41;98326.44;;;24.99;63.21
68169;BME280;54981;50.206;15.978;2022-08-19T06:35:07;98317.41;;;24.99;63.93
68169;BME280;54981;50.206;15.978;2022-08-19T06:37:32;98319.63;;;25.25;62.35
68169;BME280;54981;50.206;15.978;2022-08-19T06:39:58;98331.69;;;24.50;64.88
68169;BME280;54981;50.206;15.978;2022-08-19T06:42:23;98332.78;;;24.55;66.73
68169;BME280;54981;50.206;15.978;2022-08-19T06:44:49;98330.81;;;24.34;67.10
68169;BME280;54981;50.206;15.978;2022-08-19T06:47:19;98341.81;;;24.56;67.31
68169;BME280;54981;50.206;15.978;2022-08-19T06:52:56;98338.31;;;25.49;62.77
68169;BME280;54981;50.206;15.978;2022-08-19T06:55:21;98337.44;;;25.42;63.92
68169;BME280;54981;50.206;15.978;2022-08-19T07:07:57;98344.34;;;26.44;61.45
68169;BME280;54981;50.206;15.978;2022-08-19T07:10:23;98350.75;;;26.30;62.59
68169;BME280;54981;50.206;15.978;2022-08-19T07:22:59;98351.47;;;26.45;60.93
68169;BME280;54981;50.206;15.978;2022-08-19T07:25:24;98365.94;;;26.39;60.99
68169;BME280;54981;50.206;15.978;2022-08-19T07:27:49;98352.28;;;26.39;61.01
68169;BME280;54981;50.206;15.978;2022-08-19T07:30:16;98354.13;;;26.04;63.79
68169;BME280;54981;50.206;15.978;2022-08-19T07:32:42;98355.88;;;26.11;63.90
68169;BME280;54981;50.206;15.978;2022-08-19T07:35:08;98362.19;;;26.75;60.16
68169;BME280;54981;50.206;15.978;2022-08-19T07:37:34;98362.59;;;27.20;59.21
68169;BME280;54981;50.206;15.978;2022-08-19T07:40:04;98356.78;;;27.43;58.03
68169;BME280;54981;50.206;15.978;2022-08-19T07:42:29;98358.47;;;27.37;58.91
68169;BME280;54981;50.206;15.978;2022-08-19T07:44:55;98358.31;;;27.04;58.62
68169;BME280;54981;50.206;15.978;2022-08-19T07:47:20;98346.56;;;27.10;58.19
68169;BME280;54981;50.206;15.978;2022-08-19T07:49:45;98336.50;;;27.11;57.33
68169;BME280;54981;50.206;15.978;2022-08-19T07:52:12;98324.94;;;26.61;60.00
68169;BME280;54981;50.206;15.978;2022-08-19T07:54:39;98313.25;;;26.10;62.81
68169;BME280;54981;50.206;15.978;2022-08-19T07:57:05;98306.28;;;25.80;63.08
68169;BME280;54981;50.206;15.978;2022-08-19T07:59:30;98298.44;;;25.91;62.29
68169;BME280;54981;50.206;15.978;2022-08-19T08:01:57;98295.94;;;25.97;63.88
68169;BME280;54981;50.206;15.978;2022-08-19T08:04:24;98284.28;;;26.09;63.48
68169;BME280;54981;50.206;15.978;2022-08-19T08:07:08;98283.00;;;26.40;63.44
68169;BME280;54981;50.206;15.978;2022-08-19T08:09:52;98267.47;;;26.82;59.48
68169;BME280;54981;50.206;15.978;2022-08-19T08:12:21;98263.72;;;26.96;59.70
68169;BME280;54981;50.206;15.978;2022-08-19T08:14:52;98254.34;;;27.52;58.84
68169;BME280;54981;50.206;15.978;2022-08-19T08:17:21;98258.97;;;27.85;56.15
68169;BME280;54981;50.206;15.978;2022-08-19T08:19:47;98260.59;;;28.26;54.99
68169;BME280;54981;50.206;15.978;2022-08-19T08:22:15;98265.84;;;28.41;56.29
68169;BME280;54981;50.206;15.978;2022-08-19T08:25:07;98263.00;;;27.96;57.19
68169;BME280;54981;50.206;15.978;2022-08-19T08:27:39;98262.97;;;27.29;58.88
68169;BME280;54981;50.206;15.978;2022-08-19T08:30:09;98265.72;;;27.43;57.01
68169;BME280;54981;50.206;15.978;2022-08-19T08:32:36;98261.28;;;27.41;57.30
68169;BME280;54981;50.206;15.978;2022-08-19T08:35:03;98267.38;;;27.44;57.66
68169;BME280;54981;50.206;15.978;2022-08-19T08:37:29;98272.25;;;27.55;56.40
68169;BME280;54981;50.206;15.978;2022-08-19T08:39:55;98276.88;;;27.54;56.33
68169;BME280;54981;50.206;15.978;2022-08-19T08:42:25;98287.38;;;27.57;56.47
68169;BME280;54981;50.206;15.978;2022-08-19T08:45:02;98290.72;;;27.39;56.61
68169;BME280;54981;50.206;15.978;2022-08-19T08:47:33;98287.34;;;27.31;56.81
68169;BME280;54981;50.206;15.978;2022-08-19T08:50:11;98289.47;;;27.29;57.07
68169;BME280;54981;50.206;15.978;2022-08-19T08:52:43;98291.91;;;27.10;57.20
68169;BME280;54981;50.206;15.978;2022-08-19T08:55:14;98303.75;;;27.24;57.06
68169;BME280;54981;50.206;15.978;2022-08-19T08:57:55;98303.31;;;27.27;59.32
68169;BME280;54981;50.206;15.978;2022-08-19T09:00:27;98306.50;;;27.51;56.62
68169;BME280;54981;50.206;15.978;2022-08-19T09:02:55;98297.69;;;27.62;56.10
68169;BME280;54981;50.206;15.978;2022-08-19T09:05:23;98299.56;;;27.68;55.73
68169;BME280;54981;50.206;15.978;2022-08-19T09:08:06;98308.00;;;27.80;55.33
68169;BME280;54981;50.206;15.978;2022-08-19T09:10:46;98306.53;;;27.64;55.50
68169;BME280;54981;50.206;15.978;2022-08-19T09:13:54;98306.97;;;27.81;55.77
68169;BME280;54981;50.206;15.978;2022-08-19T09:16:22;98302.13;;;27.96;55.44
68169;BME280;54981;50.206;15.978;2022-08-19T09:18:55;98302.97;;;28.03;56.29
68169;BME280;54981;50.206;15.978;2022-08-19T09:21:24;98298.75;;;28.14;54.81
68169;BME280;54981;50.206;15.978;2022-08-19T09:23:51;98297.88;;;28.34;56.07
68169;BME280;54981;50.206;15.978;2022-08-19T09:26:19;98302.72;;;28.38;55.83
68169;BME280;54981;50.206;15.978;2022-08-19T09:28:46;98304.84;;;28.88;52.57
68169;BME280;54981;50.206;15.978;2022-08-19T09:31:18;98314.84;;;28.69;53.06
68169;BME280;54981;50.206;15.978;2022-08-19T09:33:44;98310.09;;;28.11;55.10
68169;BME280;54981;50.206;15.978;2022-08-19T09:36:11;98305.38;;;28.65;53.17
68169;BME280;54981;50.206;15.978;2022-08-19T09:38:38;98290.75;;;28.06;56.48
68169;BME280;54981;50.206;15.978;2022-08-19T09:41:10;98294.56;;;27.85;56.68
68169;BME280;54981;50.206;15.978;2022-08-19T09:43:40;98307.81;;;28.08;55.58
68169;BME280;54981;50.206;15.978;2022-08-19T09:46:07;98308.00;;;28.13;56.04
68169;BME280;54981;50.206;15.978;2022-08-19T09:48:33;98300.41;;;28.29;57.71
68169;BME280;54981;50.206;15.978;2022-08-19T09:51:03;98296.41;;;28.24;56.41
68169;BME280;54981;50.206;15.978;2022-08-19T09:53:29;98299.75;;;28.53;54.99
68169;BME280;54981;50.206;15.978;2022-08-19T09:55:55;98304.84;;;28.95;52.75
68169;BME280;54981;50.206;15.978;2022-08-19T09:58:20;98295.03;;;29.19;53.78
68169;BME280;54981;50.206;15.978;2022-08-19T10:00:47;98307.31;;;28.58;53.64
68169;BME280;54981;50.206;15.978;2022-08-19T10:03:13;98303.97;;;28.49;53.84
68169;BME280;54981;50.206;15.978;2022-08-19T10:05:38;98312.22;;;28.22;54.21
68169;BME280;54981;50.206;15.978;2022-08-19T10:08:13;98316.03;;;28.08;54.72
68169;BME280;54981;50.206;15.978;2022-08-19T10:10:38;98318.47;;;28.63;54.54
68169;BME280;54981;50.206;15.978;2022-08-19T10:13:03;98310.91;;;29.03;53.35
68169;BME280;54981;50.206;15.978;2022-08-19T10:15:29;98312.84;;;28.96;52.81
68169;BME280;54981;50.206;15.978;2022-08-19T10:17:55;98314.97;;;28.94;52.28
68169;BME280;54981;50.206;15.978;2022-08-19T10:20:20;98311.69;;;28.72;54.34
68169;BME280;54981;50.206;15.978;2022-08-19T10:22:47;98319.38;;;28.10;54.39
68169;BME280;54981;50.206;15.978;2022-08-19T10:25:13;98320.22;;;28.04;55.11
68169;BME280;54981;50.206;15.978;2022-08-19T10:27:39;98313.88;;;28.30;54.28
68169;BME280;54981;50.206;15.978;2022-08-19T10:30:05;98307.75;;;28.35;55.61
68169;BME280;54981;50.206;15.978;2022-08-19T10:32:31;98305.22;;;28.53;54.56
68169;BME280;54981;50.206;15.978;2022-08-19T10:34:56;98307.38;;;28.89;54.16
68169;BME280;54981;50.206;15.978;2022-08-19T10:37:22;98306.66;;;29.14;54.38
68169;BME280;54981;50.206;15.978;2022-08-19T10:39:48;98310.63;;;28.66;54.02
68169;BME280;54981;50.206;15.978;2022-08-19T10:42:13;98307.66;;;29.20;55.77
68169;BME280;54981;50.206;15.978;2022-08-19T10:44:39;98316.31;;;28.72;53.48
68169;BME280;54981;50.206;15.978;2022-08-19T10:47:05;98320.81;;;28.46;53.89
68169;BME280;54981;50.206;15.978;2022-08-19T10:49:31;98316.81;;;28.55;54.24
68169;BME280;54981;50.206;15.978;2022-08-19T10:51:57;98321.66;;;28.53;53.56
68169;BME280;54981;50.206;15.978;2022-08-19T10:54:41;98326.47;;;28.44;55.95
68169;BME280;54981;50.206;15.978;2022-08-19T10:57:29;98311.94;;;28.44;55.48
68169;BME280;54981;50.206;15.978;2022-08-19T10:59:55;98318.13;;;28.13;56.00
68169;BME280;54981;50.206;15.978;2022-08-19T11:02:21;98314.13;;;28.09;56.53
68169;BME280;54981;50.206;15.978;2022-08-19T11:04:47;98320.41;;;28.29;55.55
68169;BME280;54981;50.206;15.978;2022-08-19T11:07:14;98317.91;;;28.14;55.08
68169;BME280;54981;50.206;15.978;2022-08-19T11:09:41;98308.59;;;28.42;54.80
68169;BME280;54981;50.206;15.978;2022-08-19T11:12:08;98307.50;;;28.56;55.00
68169;BME280;54981;50.206;15.978;2022-08-19T11:14:34;98307.56;;;28.36;55.15
68169;BME280;54981;50.206;15.978;2022-08-19T11:17:01;98298.09;;;28.25;56.32
68169;BME280;54981;50.206;15.978;2022-08-19T11:19:27;98302.38;;;28.80;54.02
68169;BME280;54981;50.206;15.978;2022-08-19T11:21:52;98297.50;;;29.27;51.21
68169;BME280;54981;50.206;15.978;2022-08-19T11:24:22;98299.78;;;29.68;51.34
68169;BME280;54981;50.206;15.978;2022-08-19T11:26:50;98294.94;;;29.64;52.13
68169;BME280;54981;50.206;15.978;2022-08-19T11:29:17;98289.72;;;29.56;52.02
68169;BME280;54981;50.206;15.978;2022-08-19T11:31:45;98287.78;;;29.31;52.33
68169;BME280;54981;50.206;15.978;2022-08-19T11:34:15;98286.63;;;29.77;51.33
68169;BME280;54981;50.206;15.978;2022-08-19T11:36:43;98280.63;;;29.30;51.56
68169;BME280;54981;50.206;15.978;2022-08-19T11:39:11;98286.28;;;28.97;52.71
68169;BME280;54981;50.206;15.978;2022-08-19T11:41:38;98280.91;;;28.77;52.98
68169;BME280;54981;50.206;15.978;2022-08-19T11:44:04;98278.69;;;28.99;53.01
68169;BME280;54981;50.206;15.978;2022-08-19T11:46:30;98273.84;;;29.33;52.58
68169;BME280;54981;50.206;15.978;2022-08-19T11:48:57;98271.69;;;29.91;51.53
68169;BME280;54981;50.206;15.978;2022-08-19T11:51:24;98281.03;;;29.90;51.12
68169;BME280;54981;50.206;15.978;2022-08-19T11:53:50;98274.56;;;30.03;52.54
68169;BME280;54981;50.206;15.978;2022-08-19T11:56:17;98271.59;;;29.80;51.12
68169;BME280;54981;50.206;15.978;2022-08-19T11:58:42;98270.53;;;30.24;49.62
68169;BME280;54981;50.206;15.978;2022-08-19T12:01:09;98271.63;;;30.97;46.78
68169;BME280;54981;50.206;15.978;2022-08-19T12:03:36;98277.09;;;30.05;49.35
68169;BME280;54981;50.206;15.978;2022-08-19T12:06:11;98276.59;;;30.70;47.06
68169;BME280;54981;50.206;15.978;2022-08-19T12:08:39;98272.84;;;31.01;47.75
68169;BME280;54981;50.206;15.978;2022-08-19T12:11:04;98266.44;;;31.49;45.26
68169;BME280;54981;50.206;15.978;2022-08-19T12:13:33;98263.69;;;30.70;47.64
68169;BME280;54981;50.206;15.978;2022-08-19T12:15:59;98256.09;;;30.35;49.31
68169;BME280;54981;50.206;15.978;2022-08-19T12:18:25;98242.84;;;30.07;49.95
68169;BME280;54981;50.206;15.978;2022-08-19T12:20:52;98244.19;;;29.98;48.31
68169;BME280;54981;50.206;15.978;2022-08-19T12:23:18;98246.66;;;30.80;45.73
68169;BME280;54981;50.206;15.978;2022-08-19T12:25:45;98237.34;;;31.11;45.26
68169;BME280;54981;50.206;15.978;2022-08-19T12:28:15;98237.41;;;31.35;44.54
68169;BME280;54981;50.206;15.978;2022-08-19T12:30:40;98227.25;;;31.35;44.38
68169;BME280;54981;50.206;15.978;2022-08-19T12:33:07;98223.53;;;31.30;44.64
68169;BME280;54981;50.206;15.978;2022-08-19T12:35:33;98220.00;;;31.65;44.12
68169;BME280;54981;50.206;15.978;2022-08-19T12:37:58;98216.63;;;30.78;47.94
68169;BME280;54981;50.206;15.978;2022-08-19T12:40:24;98226.38;;;30.44;47.87
68169;BME280;54981;50.206;15.978;2022-08-19T12:42:50;98224.78;;;30.36;47.80
68169;BME280;54981;50.206;15.978;2022-08-19T12:45:16;98216.06;;;30.03;49.66
68169;BME280;54981;50.206;15.978;2022-08-19T12:47:41;98213.31;;;30.03;47.78
68169;BME280;54981;50.206;15.978;2022-08-19T12:50:07;98221.19;;;30.54;47.64
68169;BME280;54981;50.206;15.978;2022-08-19T12:52:35;98212.97;;;31.27;46.44
68169;BME280;54981;50.206;15.978;2022-08-19T12:55:04;98210.56;;;30.58;47.47
68169;BME280;54981;50.206;15.978;2022-08-19T12:57:30;98213.25;;;30.46;47.10
68169;BME280;54981;50.206;15.978;2022-08-19T13:00:09;98207.81;;;31.07;48.43
68169;BME280;54981;50.206;15.978;2022-08-19T13:02:38;98211.06;;;30.85;48.04
68169;BME280;54981;50.206;15.978;2022-08-19T13:05:04;98212.25;;;30.59;48.13
68169;BME280;54981;50.206;15.978;2022-08-19T13:07:32;98219.88;;;30.57;47.46
68169;BME280;54981;50.206;15.978;2022-08-19T13:09:57;98222.50;;;30.82;48.50
68169;BME280;54981;50.206;15.978;2022-08-19T13:12:22;98217.72;;;30.96;46.69
68169;BME280;54981;50.206;15.978;2022-08-19T13:14:52;98220.13;;;31.04;46.13
68169;BME280;54981;50.206;15.978;2022-08-19T13:17:17;98219.03;;;30.75;48.16
68169;BME280;54981;50.206;15.978;2022-08-19T13:19:43;98216.28;;;30.75;46.16